createdAt,value
2022-12-15T00:03:27.184Z,-2.97
2022-12-15T00:06:50.146Z,-2.97
2022-12-15T00:10:13.355Z,-2.97
2022-12-15T00:13:35.508Z,-2.97
2022-12-15T00:16:56.740Z,-2.93
2022-12-15T00:20:21.783Z,-2.91
2022-12-15T00:23:42.879Z,-2.87
2022-12-15T00:27:04.921Z,-2.86
2022-12-15T00:30:27.872Z,-2.83
2022-12-15T00:33:50.004Z,-2.81
2022-12-15T00:37:14.258Z,-2.77
2022-12-15T00:40:21.068Z,-2.75
2022-12-15T00:43:26.623Z,-2.72
2022-12-15T00:46:48.880Z,-2.74
2022-12-15T00:50:10.605Z,-2.80
2022-12-15T00:53:35.528Z,-2.82
2022-12-15T00:56:56.664Z,-2.82
2022-12-15T01:00:18.539Z,-2.84
2022-12-15T01:03:43.006Z,-2.87
2022-12-15T01:07:05.196Z,-2.87
2022-12-15T01:10:30.037Z,-2.88
2022-12-15T01:13:52.348Z,-2.86
2022-12-15T01:17:13.454Z,-2.85
2022-12-15T01:20:23.025Z,-2.84
2022-12-15T01:23:29.907Z,-2.84
2022-12-15T01:26:39.726Z,-2.89
2022-12-15T01:29:45.712Z,-2.89
2022-12-15T01:32:52.782Z,-2.95
2022-12-15T01:36:03.301Z,-2.97
2022-12-15T01:39:09.550Z,-2.99
2022-12-15T01:42:15.349Z,-2.98
2022-12-15T01:45:59.586Z,-2.97
2022-12-15T01:49:19.876Z,-3.02
2022-12-15T01:52:26.519Z,-3.04
2022-12-15T01:55:35.526Z,-3.09
2022-12-15T01:58:53.994Z,-3.23
2022-12-15T02:01:59.553Z,-3.31
2022-12-15T02:05:09.506Z,-3.38
2022-12-15T02:08:15.222Z,-3.42
2022-12-15T02:11:59.377Z,-3.35
2022-12-15T02:15:30.494Z,-3.35
2022-12-15T02:18:49.754Z,-3.37
2022-12-15T02:22:26.220Z,-3.39
2022-12-15T02:26:06.141Z,-3.38
2022-12-15T02:29:55.865Z,-3.36
2022-12-15T02:33:20.267Z,-3.35
2022-12-15T02:36:36.867Z,-3.39
2022-12-15T02:39:43.297Z,-3.36
2022-12-15T02:42:56.676Z,-3.32
2022-12-15T02:46:24.587Z,-3.23
2022-12-15T02:49:52.231Z,-3.16
2022-12-15T02:53:22.025Z,-3.10
2022-12-15T02:56:41.280Z,-3.07
2022-12-15T02:59:58.180Z,-3.11
2022-12-15T03:03:04.582Z,-3.11
2022-12-15T03:06:14.611Z,-3.21
2022-12-15T03:09:19.988Z,-3.28
2022-12-15T03:12:26.734Z,-3.30
2022-12-15T03:15:35.497Z,-3.26
2022-12-15T03:18:40.983Z,-3.17
2022-12-15T03:21:50.298Z,-3.13
2022-12-15T03:24:55.973Z,-3.20
2022-12-15T03:28:02.232Z,-3.23
2022-12-15T03:31:08.280Z,-3.26
2022-12-15T03:34:14.565Z,-3.24
2022-12-15T03:37:23.064Z,-3.26
2022-12-15T03:40:29.466Z,-3.22
2022-12-15T03:43:34.937Z,-3.30
2022-12-15T03:46:41.397Z,-3.33
2022-12-15T03:49:46.736Z,-3.35
2022-12-15T03:53:02.404Z,-3.46
2022-12-15T03:56:08.620Z,-3.57
2022-12-15T03:59:14.854Z,-3.51
2022-12-15T04:02:21.178Z,-3.58
2022-12-15T04:05:31.137Z,-3.67
2022-12-15T04:08:39.577Z,-3.75
2022-12-15T04:11:46.476Z,-3.88
2022-12-15T04:14:52.099Z,-3.92
2022-12-15T04:17:58.913Z,-3.90
2022-12-15T04:21:04.597Z,-3.96
2022-12-15T04:24:29.594Z,-4.10
2022-12-15T04:27:50.757Z,-4.16
2022-12-15T04:31:21.496Z,-4.07
2022-12-15T04:34:43.980Z,-4.16
2022-12-15T04:38:06.472Z,-4.03
2022-12-15T04:41:31.310Z,-3.99
2022-12-15T04:44:54.895Z,-3.95
2022-12-15T04:48:16.535Z,-3.99
2022-12-15T04:51:38.561Z,-4.08
2022-12-15T04:54:59.862Z,-4.09
2022-12-15T04:58:28.497Z,-3.98
2022-12-15T05:01:49.842Z,-3.95
2022-12-15T05:05:12.633Z,-3.88
2022-12-15T05:08:34.158Z,-3.90
2022-12-15T05:11:56.880Z,-3.90
2022-12-15T05:15:21.066Z,-3.82
2022-12-15T05:18:43.202Z,-3.72
2022-12-15T05:22:04.455Z,-3.73
2022-12-15T05:25:27.593Z,-3.89
2022-12-15T05:28:48.872Z,-3.85
2022-12-15T05:31:58.708Z,-3.78
2022-12-15T05:35:04.315Z,-3.78
2022-12-15T05:38:10.645Z,-3.70
2022-12-15T05:41:16.074Z,-3.61
2022-12-15T05:44:22.930Z,-3.62
2022-12-15T05:47:31.080Z,-3.56
2022-12-15T05:50:37.549Z,-3.67
2022-12-15T05:53:46.129Z,-3.78
2022-12-15T05:56:52.318Z,-3.81
2022-12-15T05:59:57.996Z,-3.83
2022-12-15T06:03:07.612Z,-3.88
2022-12-15T06:06:15.817Z,-3.90
2022-12-15T06:09:22.103Z,-3.88
2022-12-15T06:12:28.305Z,-3.95
2022-12-15T06:15:34.615Z,-4.03
2022-12-15T06:18:49.942Z,-4.14
2022-12-15T06:21:56.809Z,-4.18
2022-12-15T06:25:02.134Z,-4.24
2022-12-15T06:28:08.413Z,-4.29
2022-12-15T06:31:16.659Z,-4.35
2022-12-15T06:34:25.984Z,-4.31
2022-12-15T06:37:31.407Z,-4.35
2022-12-15T06:40:38.159Z,-4.25
2022-12-15T06:43:44.656Z,-4.15
2022-12-15T06:46:51.195Z,-4.05
2022-12-15T06:49:59.494Z,-3.97
2022-12-15T06:53:05.689Z,-3.98
2022-12-15T06:56:25.553Z,-4.01
2022-12-15T06:59:35.661Z,-4.09
2022-12-15T07:02:41.437Z,-4.08
2022-12-15T07:05:51.099Z,-4.10
2022-12-15T07:08:58.419Z,-4.11
2022-12-15T07:12:19.006Z,-4.23
2022-12-15T07:15:37.054Z,-4.34
2022-12-15T07:18:43.541Z,-4.38
2022-12-15T07:21:51.680Z,-4.41
2022-12-15T07:24:58.166Z,-4.42
2022-12-15T07:28:03.500Z,-4.30
2022-12-15T07:31:14.153Z,-4.28
2022-12-15T07:34:20.458Z,-4.31
2022-12-15T07:37:29.797Z,-4.27
2022-12-15T07:40:35.804Z,-4.34
2022-12-15T07:43:42.679Z,-4.35
2022-12-15T07:46:49.508Z,-4.20
2022-12-15T07:49:55.888Z,-4.06
2022-12-15T07:53:04.430Z,-3.96
2022-12-15T07:56:11.601Z,-3.87
2022-12-15T07:59:17.327Z,-3.85
2022-12-15T08:02:23.815Z,-3.70
2022-12-15T08:05:29.531Z,-3.58
2022-12-15T08:08:39.627Z,-3.52
2022-12-15T08:11:45.023Z,-3.40
2022-12-15T08:14:51.411Z,-3.38
2022-12-15T08:17:56.929Z,-3.31
2022-12-15T08:21:06.729Z,-3.24
2022-12-15T08:24:16.760Z,-3.14
2022-12-15T08:27:24.337Z,-3.18
2022-12-15T08:30:29.882Z,-3.20
2022-12-15T08:33:36.470Z,-3.13
2022-12-15T08:36:42.908Z,-3.10
2022-12-15T08:39:52.481Z,-3.09
2022-12-15T08:43:02.746Z,-3.09
2022-12-15T08:46:10.617Z,-3.46
2022-12-15T08:49:21.446Z,-3.14
2022-12-15T08:52:28.810Z,-3.11
2022-12-15T08:55:37.614Z,-3.13
2022-12-15T08:58:44.604Z,-3.06
2022-12-15T09:01:50.518Z,-2.92
2022-12-15T09:04:56.821Z,-2.84
2022-12-15T09:08:06.597Z,-2.75
2022-12-15T09:11:16.197Z,-2.74
2022-12-15T09:14:28.870Z,-2.84
2022-12-15T09:17:35.592Z,-2.81
2022-12-15T09:20:40.949Z,-2.71
2022-12-15T09:23:52.858Z,-2.72
2022-12-15T09:27:01.027Z,-2.72
2022-12-15T09:30:09.437Z,-2.70
2022-12-15T09:33:14.819Z,-2.63
2022-12-15T09:36:22.804Z,-2.46
2022-12-15T09:39:28.373Z,-2.37
2022-12-15T09:42:38.727Z,-2.32
2022-12-15T09:45:52.492Z,-2.32
2022-12-15T09:49:02.984Z,-2.42
2022-12-15T09:52:15.321Z,-2.72
2022-12-15T09:55:26.532Z,-2.46
2022-12-15T09:58:55.245Z,-2.40
2022-12-15T10:02:31.389Z,-2.35
2022-12-15T10:09:29.790Z,-2.25
2022-12-15T10:12:50.078Z,-2.22
2022-12-15T10:16:18.876Z,-2.19
2022-12-15T10:19:40.069Z,-2.15
2022-12-15T10:22:46.467Z,-2.06
2022-12-15T10:26:19.360Z,-1.98
2022-12-15T10:29:43.625Z,-1.93
2022-12-15T10:33:02.878Z,-1.86
2022-12-15T10:36:16.536Z,-1.78
2022-12-15T10:39:24.647Z,-1.75
2022-12-15T10:42:31.427Z,-1.77
2022-12-15T10:45:44.015Z,-1.70
2022-12-15T10:48:56.037Z,-1.62
2022-12-15T10:52:03.751Z,-1.66
2022-12-15T10:55:55.108Z,-1.71
2022-12-15T10:59:03.830Z,-1.59
2022-12-15T11:02:33.549Z,-1.61
2022-12-15T11:05:53.855Z,-1.68
2022-12-15T11:09:13.239Z,-1.70
2022-12-15T11:12:38.666Z,-1.63
2022-12-15T11:15:51.684Z,-1.62
2022-12-15T11:19:10.592Z,-1.64
2022-12-15T11:22:34.369Z,-1.69
2022-12-15T11:25:48.352Z,-1.71
2022-12-15T11:29:09.027Z,-1.84
2022-12-15T11:32:16.600Z,-1.66
2022-12-15T11:35:30.866Z,-1.62
2022-12-15T11:38:51.172Z,-1.55
2022-12-15T11:42:09.792Z,-1.50
2022-12-15T11:45:28.958Z,-1.43
2022-12-15T11:49:00.191Z,-1.33
2022-12-15T11:52:22.888Z,-1.24
2022-12-15T11:55:49.976Z,-1.52
2022-12-15T11:59:30.095Z,-1.47
2022-12-15T12:02:59.253Z,-1.49
2022-12-15T12:06:17.882Z,-1.51
2022-12-15T12:09:36.990Z,-1.46
2022-12-15T12:12:58.084Z,-1.39
2022-12-15T12:16:33.522Z,-1.33
2022-12-15T12:23:25.325Z,-1.32
2022-12-15T12:26:44.167Z,-1.30
2022-12-15T12:30:02.512Z,-1.33
2022-12-15T12:33:28.273Z,-1.28
2022-12-15T12:36:34.571Z,-1.25
2022-12-15T12:39:41.740Z,-1.34
2022-12-15T12:42:57.798Z,-1.40
2022-12-15T12:46:19.285Z,-1.39
2022-12-15T12:49:36.470Z,-1.35
2022-12-15T12:52:52.113Z,-1.51
2022-12-15T12:55:58.494Z,-1.60
2022-12-15T12:59:09.569Z,-1.54
2022-12-15T13:02:51.267Z,-1.43
2022-12-15T13:05:56.969Z,-1.31
2022-12-15T13:09:26.132Z,-1.28
2022-12-15T13:16:26.659Z,-1.27
2022-12-15T13:20:22.461Z,-1.29
2022-12-15T13:23:44.550Z,-1.49
2022-12-15T13:26:50.942Z,-1.39
2022-12-15T13:30:02.203Z,-1.45
2022-12-15T13:33:21.881Z,-1.70
2022-12-15T13:37:05.381Z,-1.61
2022-12-15T13:40:36.174Z,-1.68
2022-12-15T13:43:51.220Z,-1.77
2022-12-15T13:47:07.335Z,-1.75
2022-12-15T13:50:31.726Z,-1.77
2022-12-15T13:53:51.959Z,-1.78
2022-12-15T13:57:08.344Z,-1.86
2022-12-15T14:00:19.950Z,-1.85
2022-12-15T14:03:27.794Z,-1.84
2022-12-15T14:06:41.715Z,-1.84
2022-12-15T14:09:53.827Z,-1.85
2022-12-15T14:13:15.102Z,-1.80
2022-12-15T14:16:25.599Z,-1.77
2022-12-15T14:19:42.409Z,-1.72
2022-12-15T14:22:51.577Z,-1.73
2022-12-15T14:26:11.988Z,-1.71
2022-12-15T14:29:18.411Z,-1.72
2022-12-15T14:32:24.061Z,-1.71
2022-12-15T14:35:38.784Z,-1.68
2022-12-15T14:38:53.837Z,-1.63
2022-12-15T14:42:04.588Z,-1.55
2022-12-15T14:45:23.953Z,-1.50
2022-12-15T14:48:53.637Z,-1.49
2022-12-15T14:52:06.737Z,-1.47
2022-12-15T14:55:35.519Z,-1.42
2022-12-15T14:58:45.718Z,-1.49
2022-12-15T15:03:06.436Z,-2.28
2022-12-15T15:03:11.539Z,-1.42
2022-12-15T15:03:12.731Z,-1.28
2022-12-15T15:03:12.979Z,-1.25
2022-12-15T15:05:30.061Z,-1.44
2022-12-15T15:08:46.523Z,-1.47
2022-12-15T15:11:58.150Z,-1.47
2022-12-15T15:15:11.144Z,-1.43
2022-12-15T15:18:21.140Z,-1.39
2022-12-15T15:21:32.158Z,-1.37
2022-12-15T15:24:40.116Z,-1.35
2022-12-15T15:27:46.513Z,-1.32
2022-12-15T15:30:57.642Z,-1.30
2022-12-15T15:34:04.184Z,-1.28
2022-12-15T15:37:21.351Z,-1.33
2022-12-15T15:40:27.722Z,-1.36
2022-12-15T15:43:33.102Z,-1.41
2022-12-15T15:46:51.028Z,-1.43
2022-12-15T15:50:01.331Z,-1.43
2022-12-15T15:53:08.403Z,-1.44
2022-12-15T15:56:19.141Z,-1.48
2022-12-15T15:59:26.946Z,-1.50
2022-12-15T16:02:35.769Z,-1.52
2022-12-15T16:05:45.104Z,-1.58
2022-12-15T16:08:56.711Z,-1.66
2022-12-15T16:12:03.513Z,-1.72
2022-12-15T16:15:19.015Z,-1.79
2022-12-15T16:18:28.001Z,-1.87
2022-12-15T16:21:35.558Z,-1.91
2022-12-15T16:24:42.018Z,-1.94
2022-12-15T16:27:47.575Z,-1.95
2022-12-15T16:30:54.511Z,-1.96
2022-12-15T16:34:02.900Z,-2.02
2022-12-15T16:37:20.506Z,-2.00
2022-12-15T16:40:30.529Z,-1.98
2022-12-15T16:43:41.591Z,-1.92
2022-12-15T16:46:51.907Z,-1.86
2022-12-15T16:50:00.960Z,-1.87
2022-12-15T16:53:07.692Z,-1.84
2022-12-15T16:56:18.418Z,-1.80
2022-12-15T16:59:35.745Z,-1.76
2022-12-15T17:02:42.436Z,-1.72
2022-12-15T17:05:55.237Z,-1.70
2022-12-15T17:09:01.794Z,-1.70
2022-12-15T17:12:09.803Z,-1.71
2022-12-15T17:15:22.943Z,-1.68
2022-12-15T17:18:29.199Z,-1.67
2022-12-15T17:21:49.062Z,-1.65
2022-12-15T17:24:54.905Z,-1.65
2022-12-15T17:28:01.796Z,-1.64
2022-12-15T17:31:07.630Z,-1.66
2022-12-15T17:34:30.765Z,-1.64
2022-12-15T17:37:39.449Z,-1.64
2022-12-15T17:40:45.984Z,-1.66
2022-12-15T17:44:09.849Z,-1.58
2022-12-15T17:47:19.790Z,-1.57
2022-12-15T17:50:25.275Z,-1.56
2022-12-15T17:53:35.092Z,-1.58
2022-12-15T17:56:40.733Z,-1.56
2022-12-15T17:59:47.412Z,-1.55
2022-12-15T18:02:53.207Z,-1.55
2022-12-15T18:06:02.190Z,-1.55
2022-12-15T18:09:19.596Z,-1.58
2022-12-15T18:12:29.926Z,-1.61
2022-12-15T18:15:35.719Z,-1.62
2022-12-15T18:18:41.932Z,-1.64
2022-12-15T18:21:47.624Z,-1.66
2022-12-15T18:24:57.533Z,-1.69
2022-12-15T18:28:02.927Z,-1.70
2022-12-15T18:31:25.911Z,-1.67
2022-12-15T18:34:31.434Z,-1.67
2022-12-15T18:37:37.785Z,-1.68
2022-12-15T18:40:47.994Z,-1.69
2022-12-15T18:43:56.517Z,-1.71
2022-12-15T18:47:01.993Z,-1.74
2022-12-15T18:50:12.426Z,-1.80
2022-12-15T18:53:22.375Z,-1.83
2022-12-15T18:56:31.547Z,-1.86
2022-12-15T18:59:37.971Z,-1.86
2022-12-15T19:02:44.699Z,-1.83
2022-12-15T19:05:51.394Z,-1.94
2022-12-15T19:08:57.891Z,-1.79
2022-12-15T19:12:21.809Z,-1.78
2022-12-15T19:15:28.361Z,-1.76
2022-12-15T19:18:49.680Z,-1.74
2022-12-15T19:22:11.518Z,-1.76
2022-12-15T19:25:26.110Z,-1.79
2022-12-15T19:28:36.205Z,-1.81
2022-12-15T19:31:41.857Z,-1.82
2022-12-15T19:34:49.398Z,-1.81
2022-12-15T19:37:58.651Z,-1.82
2022-12-15T19:41:05.305Z,-1.80
2022-12-15T19:44:18.341Z,-1.79
2022-12-15T19:47:25.087Z,-1.81
2022-12-15T19:50:36.637Z,-1.86
2022-12-15T19:53:43.815Z,-1.93
2022-12-15T19:56:49.564Z,-1.94
2022-12-15T19:59:58.832Z,-1.91
2022-12-15T20:03:04.452Z,-1.93
2022-12-15T20:06:19.547Z,-1.94
2022-12-15T20:09:25.228Z,-1.96
2022-12-15T20:12:31.715Z,-1.93
2022-12-15T20:15:40.142Z,-1.90
2022-12-15T20:18:47.886Z,-1.91
2022-12-15T20:21:53.461Z,-1.97
2022-12-15T20:24:59.883Z,-2.01
2022-12-15T20:28:06.676Z,-1.99
2022-12-15T20:31:19.731Z,-1.99
2022-12-15T20:34:26.506Z,-2.04
2022-12-15T20:37:33.742Z,-2.03
2022-12-15T20:40:39.584Z,-2.01
2022-12-15T20:43:46.177Z,-2.04
2022-12-15T20:46:55.395Z,-2.10
2022-12-15T20:50:01.820Z,-2.20
2022-12-15T20:53:16.064Z,-2.23
2022-12-15T20:56:24.357Z,-2.21
2022-12-15T20:59:30.233Z,-2.19
2022-12-15T21:02:39.485Z,-2.26
2022-12-15T21:05:45.015Z,-2.31
2022-12-15T21:08:51.473Z,-2.35
2022-12-15T21:11:58.651Z,-2.41
2022-12-15T21:15:04.978Z,-2.41
2022-12-15T21:21:48.202Z,-2.45
2022-12-15T21:24:58.514Z,-2.48
2022-12-15T21:28:04.850Z,-2.52
2022-12-15T21:31:10.682Z,-2.44
2022-12-15T21:34:20.301Z,-2.37
2022-12-15T21:37:32.157Z,-2.39
2022-12-15T21:40:38.790Z,-2.37
2022-12-15T21:43:44.457Z,-2.39
2022-12-15T21:46:50.860Z,-2.38
2022-12-15T21:49:57.717Z,-2.37
2022-12-15T21:53:06.048Z,-2.30
2022-12-15T21:56:18.439Z,-2.27
2022-12-15T21:59:28.646Z,-2.22
2022-12-15T22:02:34.151Z,-2.16
2022-12-15T22:05:43.423Z,-2.13
2022-12-15T22:08:49.046Z,-2.10
2022-12-15T22:11:59.754Z,-2.17
2022-12-15T22:15:06.880Z,-2.26
2022-12-15T22:18:19.998Z,-2.30
2022-12-15T22:21:29.162Z,-2.35
2022-12-15T22:24:35.550Z,-2.41
2022-12-15T22:27:41.020Z,-2.46
2022-12-15T22:30:47.461Z,-2.50
2022-12-15T22:33:53.007Z,-2.54
2022-12-15T22:37:04.248Z,-2.57
2022-12-15T22:40:11.336Z,-2.56
2022-12-15T22:43:27.112Z,-2.48
2022-12-15T22:46:32.704Z,-2.47
2022-12-15T22:49:42.884Z,-2.44
2022-12-15T22:52:52.277Z,-2.57
2022-12-15T22:55:59.535Z,-2.65
2022-12-15T22:59:13.221Z,-2.76
2022-12-15T23:02:20.494Z,-2.85
2022-12-15T23:05:26.277Z,-2.88
2022-12-15T23:08:36.733Z,-2.94
2022-12-15T23:11:42.403Z,-2.94
2022-12-15T23:15:04.545Z,-2.95
2022-12-15T23:18:10.300Z,-2.96
2022-12-15T23:21:16.680Z,-2.94
2022-12-15T23:24:24.866Z,-2.92
2022-12-15T23:27:31.439Z,-2.92
2022-12-15T23:30:36.873Z,-2.93
2022-12-15T23:33:43.379Z,-2.95
2022-12-15T23:36:48.804Z,-2.99
2022-12-15T23:39:57.932Z,-3.11
2022-12-15T23:43:03.320Z,-3.14
2022-12-15T23:46:10.227Z,-3.09
2022-12-15T23:49:15.628Z,-3.10
2022-12-15T23:52:22.962Z,-3.08
2022-12-15T23:55:31.132Z,-3.06
2022-12-15T23:58:37.534Z,-3.06
